Location name: Kagitumba | Identifier : 221001 | Type : Hydrology Station

At the border between Rwanda and Uganda the station is under the bridge at the downstream side and right bank. Both banks are stable and accessible. Station under construction.

  • Parameter : Stage
  • Unit : m
  • Start time : 1974-01-02T08:00:00.0000000+02:00
  • End time : 2014-08-11T00:00:00.0000000+02:00
  • Parameter : Discharge
  • Unit : m^3/s
  • Start time : 1974-01-02T08:00:00.0000000+02:00
  • End time : 2014-08-11T00:00:00.0000000+02:00
  • Parameter : Stage
  • Unit : m
  • Start time : 2016-03-01T08:00:00.0000000+02:00
  • End time : 2016-11-30T17:00:00.0000000+02:00
Date Parameter Unit Value
1970-12-17T00:00:00.0000000+02:00 Discharge m^3/s 8.279999733
1970-12-17T00:00:00.0000000+02:00 Stage m 0.600000024
1971-01-14T00:00:00.0000000+02:00 Discharge m^3/s 5
1971-01-14T00:00:00.0000000+02:00 Stage m 0.349999994
1971-02-18T00:00:00.0000000+02:00 Discharge m^3/s 4.800000191
1971-02-18T00:00:00.0000000+02:00 Stage m 0.319999993
1971-03-17T00:00:00.0000000+02:00 Discharge m^3/s 6.139999866
1971-03-17T00:00:00.0000000+02:00 Stage m 0.449999988
1971-04-14T00:00:00.0000000+02:00 Discharge m^3/s 9.380000114
1971-04-14T00:00:00.0000000+02:00 Stage m 0.949999988
1973-02-13T00:00:00.0000000+02:00 Discharge m^3/s 5.300000191
1973-02-13T00:00:00.0000000+02:00 Stage m 0.439999998
1973-05-03T00:00:00.0000000+02:00 Discharge m^3/s 23.64999962
1973-05-03T00:00:00.0000000+02:00 Stage m 1.779999971
1973-05-04T00:00:00.0000000+02:00 Discharge m^3/s 22.23999977
1973-05-04T00:00:00.0000000+02:00 Stage m 1.629999995
1974-04-29T00:00:00.0000000+02:00 Discharge m^3/s 11.35999966
1974-04-29T00:00:00.0000000+02:00 Stage m 0.889999986
1974-05-03T00:00:00.0000000+02:00 Discharge m^3/s 13.57999992
1974-05-03T00:00:00.0000000+02:00 Stage m 0.889999986
1974-05-17T00:00:00.0000000+02:00 Discharge m^3/s 9.75
1974-05-17T00:00:00.0000000+02:00 Stage m 0.915000021
1975-09-23T00:00:00.0000000+02:00 Discharge m^3/s 4.699999809
1975-09-23T00:00:00.0000000+02:00 Stage m 0.400000006
1977-11-09T00:00:00.0000000+02:00 Discharge m^3/s 14.5
1977-11-09T00:00:00.0000000+02:00 Stage m 0.970000029
1977-12-01T00:00:00.0000000+02:00 Discharge m^3/s 39.29999924
1977-12-01T00:00:00.0000000+02:00 Stage m 2.339999914
1977-12-06T00:00:00.0000000+02:00 Discharge m^3/s 44.09999847
1977-12-06T00:00:00.0000000+02:00 Stage m 2.519999981
1977-12-12T00:00:00.0000000+02:00 Discharge m^3/s 13.94999981
1977-12-12T00:00:00.0000000+02:00 Stage m 0.939999998
1978-01-16T00:00:00.0000000+02:00 Discharge m^3/s 8.529999733
1978-01-16T00:00:00.0000000+02:00 Stage m 0.529999971
1978-07-27T00:00:00.0000000+02:00 Discharge m^3/s 18.06999969
1978-07-27T00:00:00.0000000+02:00 Stage m 1.129999995
1978-08-02T00:00:00.0000000+02:00 Discharge m^3/s 6.179999828
1978-08-02T00:00:00.0000000+02:00 Stage m 0.370000005
1978-08-23T00:00:00.0000000+02:00 Discharge m^3/s 9.600000381
1978-08-23T00:00:00.0000000+02:00 Stage m 0.5
1978-09-08T00:00:00.0000000+02:00 Discharge m^3/s 6.130000114
1978-09-08T00:00:00.0000000+02:00 Stage m 0.349999994
1978-09-13T00:00:00.0000000+02:00 Discharge m^3/s 6.489999771
1978-09-13T00:00:00.0000000+02:00 Stage m 0.389999986
1978-10-11T00:00:00.0000000+02:00 Discharge m^3/s 5.980000019
1978-10-11T00:00:00.0000000+02:00 Stage m 0.349999994
1978-10-27T00:00:00.0000000+02:00 Discharge m^3/s 10.47999954
1978-10-27T00:00:00.0000000+02:00 Stage m 0.540000021
1978-11-08T00:00:00.0000000+02:00 Discharge m^3/s 14.46000004
1978-11-08T00:00:00.0000000+02:00 Stage m 0.850000024
1978-11-16T00:00:00.0000000+02:00 Discharge m^3/s 19.39999962
1978-11-16T00:00:00.0000000+02:00 Stage m 1.179999948
1978-11-27T00:00:00.0000000+02:00 Discharge m^3/s 24.70000076
1978-11-27T00:00:00.0000000+02:00 Stage m 1.480000019
1978-12-19T00:00:00.0000000+02:00 Discharge m^3/s 19.04000092
1978-12-19T00:00:00.0000000+02:00 Stage m 1.210000038
1979-01-12T00:00:00.0000000+02:00 Discharge m^3/s 22.60000038
1979-01-12T00:00:00.0000000+02:00 Stage m 1.25999999
1979-01-25T00:00:00.0000000+02:00 Discharge m^3/s 12.19999981
1979-01-25T00:00:00.0000000+02:00 Stage m 0.75
1979-02-22T00:00:00.0000000+02:00 Discharge m^3/s 14.10000038
1979-02-22T00:00:00.0000000+02:00 Stage m 0.920000017
1979-02-23T00:00:00.0000000+02:00 Discharge m^3/s 15.60000038
1979-02-23T00:00:00.0000000+02:00 Stage m 1.039999962
1979-04-09T00:00:00.0000000+02:00 Discharge m^3/s 24.89999962
1979-04-09T00:00:00.0000000+02:00 Stage m 1.389999986
1979-05-12T00:00:00.0000000+02:00 Discharge m^3/s 13.10000038
1979-05-12T00:00:00.0000000+02:00 Stage m 0.819999993
1979-06-21T00:00:00.0000000+02:00 Discharge m^3/s 26.10000038
1979-06-21T00:00:00.0000000+02:00 Stage m 1.49000001
1979-07-12T00:00:00.0000000+02:00 Discharge m^3/s 11
1979-07-12T00:00:00.0000000+02:00 Stage m 0.639999986
1979-07-19T00:00:00.0000000+02:00 Discharge m^3/s 7.460000038
1979-07-19T00:00:00.0000000+02:00 Stage m 0.449999988
1979-08-24T00:00:00.0000000+02:00 Discharge m^3/s 7.630000114
1979-08-24T00:00:00.0000000+02:00 Stage m 0.419999987
1979-09-20T00:00:00.0000000+02:00 Discharge m^3/s 9.579999924
1979-09-20T00:00:00.0000000+02:00 Stage m 0.600000024
1979-10-19T00:00:00.0000000+02:00 Discharge m^3/s 6.079999924
1979-10-19T00:00:00.0000000+02:00 Stage m 0.360000014
1979-11-10T00:00:00.0000000+02:00 Discharge m^3/s 6.699999809
1979-11-10T00:00:00.0000000+02:00 Stage m 0.389999986
1979-12-20T00:00:00.0000000+02:00 Discharge m^3/s 8.170000076
1979-12-20T00:00:00.0000000+02:00 Stage m 0.479999989
1980-01-11T00:00:00.0000000+02:00 Discharge m^3/s 11.19999981
1980-01-11T00:00:00.0000000+02:00 Stage m 0.75
1980-02-14T00:00:00.0000000+02:00 Discharge m^3/s 8.090000153
1980-02-14T00:00:00.0000000+02:00 Stage m 0.469999999
1980-02-27T00:00:00.0000000+02:00 Discharge m^3/s 7.559999943
1980-02-27T00:00:00.0000000+02:00 Stage m 0.449999988
1980-11-24T00:00:00.0000000+02:00 Discharge m^3/s 18
1980-11-24T00:00:00.0000000+02:00 Stage m 1.25999999
1980-12-24T00:00:00.0000000+02:00 Discharge m^3/s 25.70000076
1980-12-24T00:00:00.0000000+02:00 Stage m 1.629999995
1981-01-08T00:00:00.0000000+02:00 Discharge m^3/s 10.10000038
1981-01-08T00:00:00.0000000+02:00 Stage m 0.689999998
1981-02-18T00:00:00.0000000+02:00 Discharge m^3/s 9.729999542
1981-02-18T00:00:00.0000000+02:00 Stage m 0.709999979
1981-02-27T00:00:00.0000000+02:00 Discharge m^3/s 5.510000229
1981-02-27T00:00:00.0000000+02:00 Stage m 0.400000006
1981-03-05T00:00:00.0000000+02:00 Discharge m^3/s 5.340000153
1981-03-05T00:00:00.0000000+02:00 Stage m 0.379999995
1981-03-20T00:00:00.0000000+02:00 Discharge m^3/s 7.880000114
1981-03-20T00:00:00.0000000+02:00 Stage m 0.540000021
1981-04-24T00:00:00.0000000+02:00 Discharge m^3/s 11.80000019
1981-04-24T00:00:00.0000000+02:00 Stage m 0.800000012
1981-05-22T00:00:00.0000000+02:00 Discharge m^3/s 28.79999924
1981-05-22T00:00:00.0000000+02:00 Stage m 1.960000038
1981-05-27T00:00:00.0000000+02:00 Discharge m^3/s 29.70000076
1981-05-27T00:00:00.0000000+02:00 Stage m 1.799999952
1981-06-18T00:00:00.0000000+02:00 Discharge m^3/s 12.60000038
1981-06-18T00:00:00.0000000+02:00 Stage m 0.850000024
1981-06-26T00:00:00.0000000+02:00 Discharge m^3/s 7.78000021
1981-06-26T00:00:00.0000000+02:00 Stage m 0.469999999
1981-08-13T00:00:00.0000000+02:00 Discharge m^3/s 7.360000134
1981-08-13T00:00:00.0000000+02:00 Stage m 0.439999998
1981-08-21T00:00:00.0000000+02:00 Discharge m^3/s 6.360000134
1981-08-21T00:00:00.0000000+02:00 Stage m 0.400000006
1981-09-04T00:00:00.0000000+02:00 Discharge m^3/s 11
1981-09-04T00:00:00.0000000+02:00 Stage m 0.74000001
1981-09-07T00:00:00.0000000+02:00 Discharge m^3/s 8.949999809
1981-09-07T00:00:00.0000000+02:00 Stage m 0.540000021
1981-10-02T00:00:00.0000000+02:00 Discharge m^3/s 6.739999771
1981-10-02T00:00:00.0000000+02:00 Stage m 0.439999998
1981-10-30T00:00:00.0000000+02:00 Discharge m^3/s 7.300000191
1981-10-30T00:00:00.0000000+02:00 Stage m 0.460000008
1981-11-13T00:00:00.0000000+02:00 Discharge m^3/s 10.89999962
1981-11-13T00:00:00.0000000+02:00 Stage m 0.660000026
1981-11-20T00:00:00.0000000+02:00 Discharge m^3/s 7.889999866
1981-11-20T00:00:00.0000000+02:00 Stage m 0.540000021
1981-12-23T00:00:00.0000000+02:00 Discharge m^3/s 6.920000076
1981-12-23T00:00:00.0000000+02:00 Stage m 0.449999988
1982-02-19T00:00:00.0000000+02:00 Discharge m^3/s 8.119999886
1982-02-19T00:00:00.0000000+02:00 Stage m 0.479999989
1982-02-26T00:00:00.0000000+02:00 Discharge m^3/s 5.260000229
1982-02-26T00:00:00.0000000+02:00 Stage m 0.330000013
1982-03-26T00:00:00.0000000+02:00 Discharge m^3/s 3.869999886
1982-03-26T00:00:00.0000000+02:00 Stage m 0.289999992
1982-05-05T00:00:00.0000000+02:00 Discharge m^3/s 5.260000229
1982-05-05T00:00:00.0000000+02:00 Stage m 0.300000012
1982-05-14T00:00:00.0000000+02:00 Discharge m^3/s 10.80000019
1982-05-14T00:00:00.0000000+02:00 Stage m 0.730000019
1982-07-22T00:00:00.0000000+02:00 Discharge m^3/s 24.39999962
1982-07-22T00:00:00.0000000+02:00 Stage m 1.470000029
1982-07-30T00:00:00.0000000+02:00 Discharge m^3/s 4.639999866
1982-07-30T00:00:00.0000000+02:00 Stage m 0.349999994
1982-08-25T00:00:00.0000000+02:00 Discharge m^3/s 5.739999771
1982-08-25T00:00:00.0000000+02:00 Stage m 0.360000014
1982-09-17T00:00:00.0000000+02:00 Discharge m^3/s 5.059999943
1982-09-17T00:00:00.0000000+02:00 Stage m 0.340000004
1983-02-11T00:00:00.0000000+02:00 Discharge m^3/s 6.260000229
1983-02-11T00:00:00.0000000+02:00 Stage m 0.400000006
1983-03-11T00:00:00.0000000+02:00 Discharge m^3/s 6.579999924
1983-03-11T00:00:00.0000000+02:00 Stage m 0.400000006
1983-03-28T00:00:00.0000000+02:00 Discharge m^3/s 5.710000038
1983-03-28T00:00:00.0000000+02:00 Stage m 0.379999995
1983-04-22T00:00:00.0000000+02:00 Discharge m^3/s 8.300000191
1983-04-22T00:00:00.0000000+02:00 Stage m 0.50999999
1983-07-15T00:00:00.0000000+02:00 Discharge m^3/s 9.520000458
1983-07-15T00:00:00.0000000+02:00 Stage m 0.689999998
1983-07-22T00:00:00.0000000+02:00 Discharge m^3/s 4.190000057
1983-07-22T00:00:00.0000000+02:00 Stage m 0.310000002
1983-08-12T00:00:00.0000000+02:00 Discharge m^3/s 4.519999981
1983-08-12T00:00:00.0000000+02:00 Stage m 0.310000002
1983-09-09T00:00:00.0000000+02:00 Discharge m^3/s 5.320000172
1983-09-09T00:00:00.0000000+02:00 Stage m 0.330000013
1983-09-23T00:00:00.0000000+02:00 Discharge m^3/s 8.56000042
1983-09-23T00:00:00.0000000+02:00 Stage m 0.550000012
1985-05-15T00:00:00.0000000+02:00 Discharge m^3/s 5.210000038
1985-05-15T00:00:00.0000000+02:00 Stage m 0.340000004
2013-10-24T00:00:00.0000000+02:00 Discharge m^3/s 6.49
2013-10-24T00:00:00.0000000+02:00 Stage m 0.52
2014-02-25T00:00:00.0000000+02:00 Discharge m^3/s 13.1
2014-02-25T00:00:00.0000000+02:00 Stage m 0.96
2014-05-20T00:00:00.0000000+02:00 Discharge m^3/s 12.58
2014-05-20T00:00:00.0000000+02:00 Stage m 0.85
2014-09-16T00:00:00.0000000+02:00 Discharge m^3/s 8.67
2014-09-16T00:00:00.0000000+02:00 Stage m 0.6
2017-05-10T00:00:00.0000000+02:00 Discharge m^3/s 16.7
2017-05-10T00:00:00.0000000+02:00 Stage m 1.1
2017-09-06T00:00:00.0000000+02:00 Discharge m^3/s 3.65
2017-09-06T00:00:00.0000000+02:00 Stage m 0.44
2017-10-10T00:00:00.0000000+02:00 Discharge m^3/s 5.24
2017-10-10T00:00:00.0000000+02:00 Stage m 0.48
2017-12-12T00:00:00.0000000+02:00 Discharge m^3/s 15.203
2017-12-12T00:00:00.0000000+02:00 Stage m 0.77
2018-05-09T10:00:00.0000000+02:00 Discharge m^3/s 42.11
2018-05-09T10:00:00.0000000+02:00 Stage m 1.77
2018-09-13T08:28:00.0000000+02:00 Discharge m^3/s 4.028
2018-09-13T08:28:00.0000000+02:00 Stage m 0.42
2019-01-09T10:20:00.0000000+02:00 Discharge m^3/s 6.2
2019-01-09T10:20:00.0000000+02:00 Stage m 0.42
2019-06-19T05:04:00.0000000+02:00 Discharge m^3/s 3.56
2019-06-19T05:04:00.0000000+02:00 Stage m 0.29